sensor_id;sensor_type;location;lat;lon;timestamp;pressure;altitude;pressure_sealevel;temperature;humidity
13434;BME280;6789;47.678;9.158;2023-02-13T00:03:48;98563.72;;;1.06;100.00
13434;BME280;6789;47.678;9.158;2023-02-13T00:08:40;98556.00;;;0.95;100.00
13434;BME280;6789;47.678;9.158;2023-02-13T00:13:33;98570.91;;;0.91;100.00
13434;BME280;6789;47.678;9.158;2023-02-13T00:18:27;98571.72;;;0.81;100.00
13434;BME280;6789;47.678;9.158;2023-02-13T00:23:19;98570.34;;;0.77;100.00
13434;BME280;6789;47.678;9.158;2023-02-13T00:28:11;98573.13;;;0.74;100.00
13434;BME280;6789;47.678;9.158;2023-02-13T00:33:03;98569.84;;;0.72;100.00
13434;BME280;6789;47.678;9.158;2023-02-13T00:37:54;98572.34;;;0.73;100.00
13434;BME280;6789;47.678;9.158;2023-02-13T00:42:46;98564.13;;;0.79;100.00
13434;BME280;6789;47.678;9.158;2023-02-13T00:47:38;98573.00;;;0.97;100.00
13434;BME280;6789;47.678;9.158;2023-02-13T00:52:29;98568.88;;;1.06;100.00
13434;BME280;6789;47.678;9.158;2023-02-13T00:57:21;98574.00;;;1.17;100.00
13434;BME280;6789;47.678;9.158;2023-02-13T01:02:13;98578.66;;;1.34;100.00
13434;BME280;6789;47.678;9.158;2023-02-13T01:07:05;98575.66;;;1.60;100.00
13434;BME280;6789;47.678;9.158;2023-02-13T01:11:56;98564.31;;;1.92;100.00
13434;BME280;6789;47.678;9.158;2023-02-13T01:16:48;98563.94;;;1.97;100.00
13434;BME280;6789;47.678;9.158;2023-02-13T01:21:41;98576.56;;;2.11;100.00
13434;BME280;6789;47.678;9.158;2023-02-13T01:26:33;98575.16;;;2.27;100.00
13434;BME280;6789;47.678;9.158;2023-02-13T01:31:26;98572.03;;;2.33;100.00
13434;BME280;6789;47.678;9.158;2023-02-13T01:36:18;98571.25;;;2.32;100.00
13434;BME280;6789;47.678;9.158;2023-02-13T01:41:10;98574.97;;;2.39;100.00
13434;BME280;6789;47.678;9.158;2023-02-13T01:46:02;98580.00;;;2.41;100.00
13434;BME280;6789;47.678;9.158;2023-02-13T01:51:07;98585.19;;;2.41;100.00
13434;BME280;6789;47.678;9.158;2023-02-13T02:01:16;98611.94;;;2.51;100.00
13434;BME280;6789;47.678;9.158;2023-02-13T02:06:17;98605.97;;;2.60;100.00
13434;BME280;6789;47.678;9.158;2023-02-13T02:11:29;98614.31;;;2.63;100.00
13434;BME280;6789;47.678;9.158;2023-02-13T02:16:24;98614.19;;;2.65;100.00
13434;BME280;6789;47.678;9.158;2023-02-13T02:32:31;98622.41;;;2.79;100.00
13434;BME280;6789;47.678;9.158;2023-02-13T02:38:05;98618.50;;;2.84;100.00
13434;BME280;6789;47.678;9.158;2023-02-13T02:43:36;98617.84;;;2.92;100.00
13434;BME280;6789;47.678;9.158;2023-02-13T02:48:52;98614.19;;;2.94;100.00
13434;BME280;6789;47.678;9.158;2023-02-13T02:54:14;98609.16;;;3.02;100.00
13434;BME280;6789;47.678;9.158;2023-02-13T02:59:35;98614.50;;;3.10;100.00
13434;BME280;6789;47.678;9.158;2023-02-13T03:04:52;98616.81;;;3.13;100.00
13434;BME280;6789;47.678;9.158;2023-02-13T03:10:24;98623.41;;;3.17;100.00
13434;BME280;6789;47.678;9.158;2023-02-13T03:15:39;98626.00;;;3.17;100.00
13434;BME280;6789;47.678;9.158;2023-02-13T03:21:11;98633.75;;;3.17;100.00
13434;BME280;6789;47.678;9.158;2023-02-13T03:26:43;98631.88;;;3.19;100.00
13434;BME280;6789;47.678;9.158;2023-02-13T03:31:51;98628.88;;;3.24;100.00
13434;BME280;6789;47.678;9.158;2023-02-13T03:36:58;98641.44;;;3.28;100.00
13434;BME280;6789;47.678;9.158;2023-02-13T03:47:11;98641.19;;;3.31;100.00
13434;BME280;6789;47.678;9.158;2023-02-13T03:52:14;98637.63;;;3.32;100.00
13434;BME280;6789;47.678;9.158;2023-02-13T03:57:10;98643.63;;;3.33;100.00
13434;BME280;6789;47.678;9.158;2023-02-13T04:02:29;98641.03;;;3.33;100.00
13434;BME280;6789;47.678;9.158;2023-02-13T04:07:24;98646.78;;;3.36;100.00
13434;BME280;6789;47.678;9.158;2023-02-13T04:18:24;98648.00;;;3.42;100.00
13434;BME280;6789;47.678;9.158;2023-02-13T04:23:18;98649.78;;;3.41;100.00
13434;BME280;6789;47.678;9.158;2023-02-13T04:28:10;98647.63;;;3.46;100.00
13434;BME280;6789;47.678;9.158;2023-02-13T04:33:02;98648.31;;;3.48;100.00
13434;BME280;6789;47.678;9.158;2023-02-13T04:37:53;98655.00;;;3.51;100.00
13434;BME280;6789;47.678;9.158;2023-02-13T04:42:47;98662.00;;;3.59;100.00
13434;BME280;6789;47.678;9.158;2023-02-13T04:47:39;98659.50;;;3.58;100.00
13434;BME280;6789;47.678;9.158;2023-02-13T04:52:31;98647.50;;;3.57;100.00
13434;BME280;6789;47.678;9.158;2023-02-13T04:57:23;98658.72;;;3.57;100.00
13434;BME280;6789;47.678;9.158;2023-02-13T05:02:15;98664.84;;;3.66;100.00
13434;BME280;6789;47.678;9.158;2023-02-13T05:07:07;98654.63;;;3.64;100.00
13434;BME280;6789;47.678;9.158;2023-02-13T05:12:00;98660.38;;;3.68;100.00
13434;BME280;6789;47.678;9.158;2023-02-13T05:17:01;98655.97;;;3.68;100.00
13434;BME280;6789;47.678;9.158;2023-02-13T05:21:56;98656.53;;;3.72;100.00
13434;BME280;6789;47.678;9.158;2023-02-13T05:27:06;98665.28;;;3.71;100.00
13434;BME280;6789;47.678;9.158;2023-02-13T05:31:59;98662.53;;;3.72;100.00
13434;BME280;6789;47.678;9.158;2023-02-13T05:36:51;98667.63;;;3.74;100.00
13434;BME280;6789;47.678;9.158;2023-02-13T05:41:47;98669.66;;;3.80;100.00
13434;BME280;6789;47.678;9.158;2023-02-13T05:46:54;98670.06;;;3.85;100.00
13434;BME280;6789;47.678;9.158;2023-02-13T05:51:46;98673.38;;;3.87;100.00
13434;BME280;6789;47.678;9.158;2023-02-13T05:56:40;98674.31;;;3.86;100.00
13434;BME280;6789;47.678;9.158;2023-02-13T06:01:33;98675.13;;;3.86;100.00
13434;BME280;6789;47.678;9.158;2023-02-13T06:06:39;98671.72;;;3.86;100.00
13434;BME280;6789;47.678;9.158;2023-02-13T06:11:31;98674.16;;;3.87;100.00
13434;BME280;6789;47.678;9.158;2023-02-13T06:16:37;98684.56;;;3.87;100.00
13434;BME280;6789;47.678;9.158;2023-02-13T06:21:31;98679.50;;;3.86;100.00
13434;BME280;6789;47.678;9.158;2023-02-13T06:26:26;98682.75;;;3.88;100.00
13434;BME280;6789;47.678;9.158;2023-02-13T06:31:32;98690.28;;;3.91;100.00
13434;BME280;6789;47.678;9.158;2023-02-13T06:36:37;98694.81;;;4.08;100.00
13434;BME280;6789;47.678;9.158;2023-02-13T06:41:43;98691.00;;;4.02;100.00
13434;BME280;6789;47.678;9.158;2023-02-13T06:46:43;98697.94;;;3.92;100.00
13434;BME280;6789;47.678;9.158;2023-02-13T06:51:37;98697.13;;;3.82;100.00
13434;BME280;6789;47.678;9.158;2023-02-13T06:56:43;98702.41;;;3.62;100.00
13434;BME280;6789;47.678;9.158;2023-02-13T07:01:49;98706.50;;;3.64;100.00
13434;BME280;6789;47.678;9.158;2023-02-13T07:06:43;98703.63;;;3.67;100.00
13434;BME280;6789;47.678;9.158;2023-02-13T07:11:49;98706.78;;;3.71;100.00
13434;BME280;6789;47.678;9.158;2023-02-13T07:16:56;98701.88;;;3.77;100.00
13434;BME280;6789;47.678;9.158;2023-02-13T07:22:02;98710.88;;;3.83;100.00
13434;BME280;6789;47.678;9.158;2023-02-13T07:27:08;98707.38;;;3.93;100.00
13434;BME280;6789;47.678;9.158;2023-02-13T07:32:00;98721.59;;;3.99;100.00
13434;BME280;6789;47.678;9.158;2023-02-13T07:36:53;98723.91;;;4.02;100.00
13434;BME280;6789;47.678;9.158;2023-02-13T07:42:00;98725.91;;;3.79;100.00
13434;BME280;6789;47.678;9.158;2023-02-13T07:47:05;98730.53;;;3.76;100.00
13434;BME280;6789;47.678;9.158;2023-02-13T07:52:13;98732.16;;;3.67;100.00
13434;BME280;6789;47.678;9.158;2023-02-13T07:57:18;98729.03;;;3.73;100.00
13434;BME280;6789;47.678;9.158;2023-02-13T08:02:34;98737.38;;;3.77;100.00
13434;BME280;6789;47.678;9.158;2023-02-13T08:07:40;98737.66;;;3.83;100.00
13434;BME280;6789;47.678;9.158;2023-02-13T08:12:47;98737.13;;;3.80;100.00
13434;BME280;6789;47.678;9.158;2023-02-13T08:17:53;98744.94;;;3.50;100.00
13434;BME280;6789;47.678;9.158;2023-02-13T08:23:06;98740.72;;;3.49;100.00
13434;BME280;6789;47.678;9.158;2023-02-13T08:28:12;98726.91;;;3.49;100.00
13434;BME280;6789;47.678;9.158;2023-02-13T08:33:19;98734.88;;;3.66;100.00
13434;BME280;6789;47.678;9.158;2023-02-13T08:38:25;98749.38;;;3.78;100.00
13434;BME280;6789;47.678;9.158;2023-02-13T08:43:31;98743.41;;;3.77;100.00
13434;BME280;6789;47.678;9.158;2023-02-13T08:48:37;98738.84;;;3.70;100.00
13434;BME280;6789;47.678;9.158;2023-02-13T08:53:35;98750.47;;;3.75;100.00
13434;BME280;6789;47.678;9.158;2023-02-13T08:58:41;98743.66;;;3.74;100.00
13434;BME280;6789;47.678;9.158;2023-02-13T09:03:47;98743.72;;;3.54;100.00
13434;BME280;6789;47.678;9.158;2023-02-13T09:08:54;98739.66;;;3.61;100.00
13434;BME280;6789;47.678;9.158;2023-02-13T09:14:00;98741.59;;;3.78;100.00
13434;BME280;6789;47.678;9.158;2023-02-13T09:19:06;98748.88;;;3.93;100.00
13434;BME280;6789;47.678;9.158;2023-02-13T09:24:12;98742.75;;;4.04;100.00
13434;BME280;6789;47.678;9.158;2023-02-13T09:29:34;98745.91;;;4.07;100.00
13434;BME280;6789;47.678;9.158;2023-02-13T09:34:40;98757.94;;;4.18;100.00
13434;BME280;6789;47.678;9.158;2023-02-13T09:39:50;98759.06;;;4.24;100.00
13434;BME280;6789;47.678;9.158;2023-02-13T09:45:01;98756.88;;;4.29;100.00
13434;BME280;6789;47.678;9.158;2023-02-13T09:50:20;98761.78;;;4.51;100.00
13434;BME280;6789;47.678;9.158;2023-02-13T09:55:55;98759.19;;;4.51;100.00
13434;BME280;6789;47.678;9.158;2023-02-13T10:01:55;98761.91;;;4.69;100.00
13434;BME280;6789;47.678;9.158;2023-02-13T10:07:54;98764.13;;;4.73;100.00
13434;BME280;6789;47.678;9.158;2023-02-13T10:19:33;98758.59;;;4.95;100.00
13434;BME280;6789;47.678;9.158;2023-02-13T10:30:06;98759.91;;;5.18;100.00
13434;BME280;6789;47.678;9.158;2023-02-13T10:35:31;98750.31;;;5.28;100.00
13434;BME280;6789;47.678;9.158;2023-02-13T10:46:29;98741.91;;;5.43;100.00
13434;BME280;6789;47.678;9.158;2023-02-13T10:58:08;98733.44;;;5.68;100.00
13434;BME280;6789;47.678;9.158;2023-02-13T11:03:34;98727.50;;;5.85;100.00
13434;BME280;6789;47.678;9.158;2023-02-13T11:08:46;98727.13;;;5.70;98.76
13434;BME280;6789;47.678;9.158;2023-02-13T11:14:16;98734.25;;;5.42;100.00
13434;BME280;6789;47.678;9.158;2023-02-13T11:19:36;98720.72;;;5.65;100.00
13434;BME280;6789;47.678;9.158;2023-02-13T11:24:55;98726.16;;;5.71;99.19
13434;BME280;6789;47.678;9.158;2023-02-13T11:35:35;98723.13;;;5.85;98.11
13434;BME280;6789;47.678;9.158;2023-02-13T11:40:30;98716.00;;;5.78;98.82
13434;BME280;6789;47.678;9.158;2023-02-13T11:45:26;98713.09;;;6.08;98.12
13434;BME280;6789;47.678;9.158;2023-02-13T11:50:34;98719.72;;;6.02;96.94
13434;BME280;6789;47.678;9.158;2023-02-13T11:55:59;98713.25;;;6.06;96.55
13434;BME280;6789;47.678;9.158;2023-02-13T12:06:37;98716.75;;;6.32;95.14
13434;BME280;6789;47.678;9.158;2023-02-13T12:11:52;98706.78;;;6.45;93.93
13434;BME280;6789;47.678;9.158;2023-02-13T12:17:13;98701.06;;;6.67;92.54
13434;BME280;6789;47.678;9.158;2023-02-13T12:22:30;98704.19;;;6.88;92.19
13434;BME280;6789;47.678;9.158;2023-02-13T12:33:39;98683.16;;;7.14;89.77
13434;BME280;6789;47.678;9.158;2023-02-13T12:45:02;98684.41;;;7.03;89.46
13434;BME280;6789;47.678;9.158;2023-02-13T12:55:51;98677.09;;;7.06;88.41
13434;BME280;6789;47.678;9.158;2023-02-13T13:07:03;98676.16;;;6.90;89.11
13434;BME280;6789;47.678;9.158;2023-02-13T13:12:40;98665.81;;;6.55;90.62
13434;BME280;6789;47.678;9.158;2023-02-13T13:18:04;98674.03;;;6.42;92.09
13434;BME280;6789;47.678;9.158;2023-02-13T13:23:36;98661.88;;;6.34;91.95
13434;BME280;6789;47.678;9.158;2023-02-13T13:28:54;98663.88;;;6.39;93.16
13434;BME280;6789;47.678;9.158;2023-02-13T13:33:51;98663.25;;;6.38;92.74
13434;BME280;6789;47.678;9.158;2023-02-13T13:39:19;98650.19;;;6.80;91.42
13434;BME280;6789;47.678;9.158;2023-02-13T13:45:36;98657.41;;;7.19;88.71
13434;BME280;6789;47.678;9.158;2023-02-13T13:50:56;98659.47;;;7.41;87.80
13434;BME280;6789;47.678;9.158;2023-02-13T13:56:04;98655.75;;;7.52;86.76
13434;BME280;6789;47.678;9.158;2023-02-13T14:01:32;98653.72;;;6.97;89.26
13434;BME280;6789;47.678;9.158;2023-02-13T14:11:49;98646.78;;;6.37;92.31
13434;BME280;6789;47.678;9.158;2023-02-13T14:17:03;98656.69;;;6.34;92.23
13434;BME280;6789;47.678;9.158;2023-02-13T14:27:33;98658.63;;;6.14;94.14
13434;BME280;6789;47.678;9.158;2023-02-13T14:33:06;98654.59;;;5.85;94.79
13434;BME280;6789;47.678;9.158;2023-02-13T14:38:33;98663.63;;;5.37;97.67
13434;BME280;6789;47.678;9.158;2023-02-13T14:43:52;98661.91;;;5.55;98.14
13434;BME280;6789;47.678;9.158;2023-02-13T14:49:24;98663.03;;;5.43;98.32
13434;BME280;6789;47.678;9.158;2023-02-13T14:54:45;98657.28;;;5.49;98.50
13434;BME280;6789;47.678;9.158;2023-02-13T15:05:52;98653.09;;;5.56;97.11
13434;BME280;6789;47.678;9.158;2023-02-13T15:22:01;98648.28;;;5.87;95.82
13434;BME280;6789;47.678;9.158;2023-02-13T15:27:20;98641.25;;;5.70;96.51
13434;BME280;6789;47.678;9.158;2023-02-13T15:32:35;98629.91;;;5.45;97.32
13434;BME280;6789;47.678;9.158;2023-02-13T15:42:36;98630.75;;;5.45;98.55
13434;BME280;6789;47.678;9.158;2023-02-13T15:48:21;98629.09;;;5.44;98.39
13434;BME280;6789;47.678;9.158;2023-02-13T15:53:27;98624.06;;;5.33;99.22
13434;BME280;6789;47.678;9.158;2023-02-13T15:58:34;98621.03;;;5.20;99.73
13434;BME280;6789;47.678;9.158;2023-02-13T16:03:29;98621.06;;;5.11;100.00
13434;BME280;6789;47.678;9.158;2023-02-13T16:08:37;98626.34;;;4.92;100.00
13434;BME280;6789;47.678;9.158;2023-02-13T16:14:24;98619.44;;;4.64;100.00
13434;BME280;6789;47.678;9.158;2023-02-13T16:24:52;98620.97;;;4.57;100.00
13434;BME280;6789;47.678;9.158;2023-02-13T16:30:06;98625.13;;;4.31;100.00
13434;BME280;6789;47.678;9.158;2023-02-13T16:40:38;98617.88;;;4.16;100.00
13434;BME280;6789;47.678;9.158;2023-02-13T16:45:42;98623.78;;;3.99;100.00
13434;BME280;6789;47.678;9.158;2023-02-13T16:50:54;98623.78;;;3.80;100.00
13434;BME280;6789;47.678;9.158;2023-02-13T16:56:01;98622.94;;;3.61;100.00
13434;BME280;6789;47.678;9.158;2023-02-13T17:00:58;98622.09;;;3.51;100.00
13434;BME280;6789;47.678;9.158;2023-02-13T17:06:01;98631.22;;;3.36;100.00
13434;BME280;6789;47.678;9.158;2023-02-13T17:11:16;98632.84;;;3.28;100.00
13434;BME280;6789;47.678;9.158;2023-02-13T17:16:10;98637.47;;;3.24;100.00
13434;BME280;6789;47.678;9.158;2023-02-13T17:21:08;98633.22;;;3.14;100.00
13434;BME280;6789;47.678;9.158;2023-02-13T17:26:08;98638.13;;;3.26;100.00
13434;BME280;6789;47.678;9.158;2023-02-13T17:31:01;98643.19;;;3.18;100.00
13434;BME280;6789;47.678;9.158;2023-02-13T17:36:10;98641.25;;;3.20;100.00
13434;BME280;6789;47.678;9.158;2023-02-13T17:41:11;98642.75;;;3.13;100.00
13434;BME280;6789;47.678;9.158;2023-02-13T17:46:18;98642.69;;;3.04;100.00
13434;BME280;6789;47.678;9.158;2023-02-13T17:51:13;98640.88;;;2.85;100.00
13434;BME280;6789;47.678;9.158;2023-02-13T17:56:07;98637.44;;;2.76;100.00
13434;BME280;6789;47.678;9.158;2023-02-13T18:01:03;98637.94;;;2.49;100.00
13434;BME280;6789;47.678;9.158;2023-02-13T18:05:59;98640.53;;;2.29;100.00
13434;BME280;6789;47.678;9.158;2023-02-13T18:10:54;98634.38;;;2.20;100.00
13434;BME280;6789;47.678;9.158;2023-02-13T18:15:53;98643.69;;;2.12;100.00
13434;BME280;6789;47.678;9.158;2023-02-13T18:20:59;98631.63;;;2.02;100.00
13434;BME280;6789;47.678;9.158;2023-02-13T18:26:08;98647.53;;;1.97;100.00
13434;BME280;6789;47.678;9.158;2023-02-13T18:31:08;98636.59;;;1.94;100.00
13434;BME280;6789;47.678;9.158;2023-02-13T18:36:02;98648.16;;;1.90;100.00
13434;BME280;6789;47.678;9.158;2023-02-13T18:41:08;98650.66;;;1.80;100.00
13434;BME280;6789;47.678;9.158;2023-02-13T18:46:02;98647.41;;;1.67;100.00
13434;BME280;6789;47.678;9.158;2023-02-13T18:50:58;98652.25;;;1.61;100.00
13434;BME280;6789;47.678;9.158;2023-02-13T18:56:00;98645.78;;;1.55;100.00
13434;BME280;6789;47.678;9.158;2023-02-13T19:00:53;98645.00;;;1.55;100.00
13434;BME280;6789;47.678;9.158;2023-02-13T19:05:53;98649.69;;;1.50;100.00
13434;BME280;6789;47.678;9.158;2023-02-13T19:10:44;98644.31;;;1.42;100.00
13434;BME280;6789;47.678;9.158;2023-02-13T19:15:51;98644.66;;;1.38;100.00
13434;BME280;6789;47.678;9.158;2023-02-13T19:20:43;98648.19;;;1.37;100.00
13434;BME280;6789;47.678;9.158;2023-02-13T19:25:43;98645.34;;;1.39;100.00
13434;BME280;6789;47.678;9.158;2023-02-13T19:30:35;98642.69;;;1.30;100.00
13434;BME280;6789;47.678;9.158;2023-02-13T19:35:27;98649.28;;;1.23;100.00
13434;BME280;6789;47.678;9.158;2023-02-13T19:40:20;98651.75;;;1.14;100.00
13434;BME280;6789;47.678;9.158;2023-02-13T19:45:12;98647.41;;;1.14;100.00
13434;BME280;6789;47.678;9.158;2023-02-13T19:50:06;98653.50;;;1.13;100.00
13434;BME280;6789;47.678;9.158;2023-02-13T19:55:12;98652.56;;;1.14;100.00
13434;BME280;6789;47.678;9.158;2023-02-13T20:00:06;98665.94;;;1.08;100.00
13434;BME280;6789;47.678;9.158;2023-02-13T20:05:00;98668.53;;;1.08;100.00
13434;BME280;6789;47.678;9.158;2023-02-13T20:09:57;98656.22;;;1.12;100.00
13434;BME280;6789;47.678;9.158;2023-02-13T20:14:50;98654.81;;;1.08;100.00
13434;BME280;6789;47.678;9.158;2023-02-13T20:19:42;98660.56;;;0.89;100.00
13434;BME280;6789;47.678;9.158;2023-02-13T20:24:42;98669.03;;;0.80;100.00
13434;BME280;6789;47.678;9.158;2023-02-13T20:29:36;98668.44;;;0.77;100.00
13434;BME280;6789;47.678;9.158;2023-02-13T20:34:29;98665.38;;;0.83;100.00
13434;BME280;6789;47.678;9.158;2023-02-13T20:39:43;98649.75;;;0.95;100.00
13434;BME280;6789;47.678;9.158;2023-02-13T20:44:38;98662.66;;;1.17;100.00
13434;BME280;6789;47.678;9.158;2023-02-13T20:49:31;98653.78;;;1.63;100.00
13434;BME280;6789;47.678;9.158;2023-02-13T20:54:24;98652.97;;;1.83;100.00
13434;BME280;6789;47.678;9.158;2023-02-13T20:59:16;98650.06;;;1.77;100.00
13434;BME280;6789;47.678;9.158;2023-02-13T21:04:07;98645.22;;;1.83;100.00
13434;BME280;6789;47.678;9.158;2023-02-13T21:09:04;98649.66;;;1.92;100.00
13434;BME280;6789;47.678;9.158;2023-02-13T21:13:57;98638.69;;;2.00;100.00
13434;BME280;6789;47.678;9.158;2023-02-13T21:18:54;98651.69;;;2.09;100.00
13434;BME280;6789;47.678;9.158;2023-02-13T21:23:47;98647.44;;;2.19;100.00
13434;BME280;6789;47.678;9.158;2023-02-13T21:28:40;98649.25;;;2.28;100.00
13434;BME280;6789;47.678;9.158;2023-02-13T21:33:33;98645.41;;;2.43;100.00
13434;BME280;6789;47.678;9.158;2023-02-13T21:38:25;98648.69;;;2.45;100.00
13434;BME280;6789;47.678;9.158;2023-02-13T21:43:17;98643.06;;;2.40;100.00
13434;BME280;6789;47.678;9.158;2023-02-13T21:48:10;98643.13;;;2.49;100.00
13434;BME280;6789;47.678;9.158;2023-02-13T21:53:02;98647.06;;;2.44;100.00
13434;BME280;6789;47.678;9.158;2023-02-13T21:57:55;98638.28;;;2.56;100.00
13434;BME280;6789;47.678;9.158;2023-02-13T22:02:46;98636.91;;;2.61;100.00
13434;BME280;6789;47.678;9.158;2023-02-13T22:07:39;98641.88;;;2.44;100.00
13434;BME280;6789;47.678;9.158;2023-02-13T22:12:51;98629.22;;;2.50;100.00
13434;BME280;6789;47.678;9.158;2023-02-13T22:17:44;98626.72;;;2.39;100.00
13434;BME280;6789;47.678;9.158;2023-02-13T22:22:50;98630.31;;;2.48;100.00
13434;BME280;6789;47.678;9.158;2023-02-13T22:27:48;98636.13;;;2.40;100.00
13434;BME280;6789;47.678;9.158;2023-02-13T22:32:40;98628.16;;;2.53;100.00
13434;BME280;6789;47.678;9.158;2023-02-13T22:37:33;98624.28;;;2.38;100.00
13434;BME280;6789;47.678;9.158;2023-02-13T22:42:24;98627.81;;;2.37;100.00
13434;BME280;6789;47.678;9.158;2023-02-13T22:47:17;98625.44;;;2.34;100.00
13434;BME280;6789;47.678;9.158;2023-02-13T22:52:11;98619.13;;;2.27;100.00
13434;BME280;6789;47.678;9.158;2023-02-13T22:57:03;98623.94;;;2.11;100.00
13434;BME280;6789;47.678;9.158;2023-02-13T23:01:56;98623.31;;;2.18;100.00
13434;BME280;6789;47.678;9.158;2023-02-13T23:07:01;98619.84;;;2.29;100.00
13434;BME280;6789;47.678;9.158;2023-02-13T23:11:53;98617.19;;;2.19;100.00
13434;BME280;6789;47.678;9.158;2023-02-13T23:17:04;98624.75;;;2.11;100.00
13434;BME280;6789;47.678;9.158;2023-02-13T23:22:15;98630.75;;;2.12;100.00
13434;BME280;6789;47.678;9.158;2023-02-13T23:27:08;98626.72;;;2.19;100.00
13434;BME280;6789;47.678;9.158;2023-02-13T23:31:59;98625.91;;;2.18;100.00
13434;BME280;6789;47.678;9.158;2023-02-13T23:36:52;98638.59;;;2.21;100.00
13434;BME280;6789;47.678;9.158;2023-02-13T23:41:44;98643.91;;;2.20;100.00
13434;BME280;6789;47.678;9.158;2023-02-13T23:46:36;98651.91;;;2.17;100.00
13434;BME280;6789;47.678;9.158;2023-02-13T23:51:28;98643.34;;;2.16;100.00
13434;BME280;6789;47.678;9.158;2023-02-13T23:56:21;98635.94;;;2.12;100.00
